Time;durP1;ratioP1;P1;durP2;ratioP2;P2;SDS_P1;SDS_P2;PMS_P1;PMS_P2;Temp;Humidity;BMP_temperature;BMP_pressure;BME280_temperature;BME280_humidity;BME280_pressure;Samples;Min_cycle;Max_cycle;Signal;HPM_P1;HPM_P2
2022/12/21 00:01:25;;;;;;;16.83;15.13;;;;;;;-2.86;82.89;93688.28;5089040;28;21097;-70
2022/12/21 00:03:53;;;;;;;18.67;16.77;;;;;;;-2.84;83.35;93683.81;5092068;28;20689;-70
2022/12/21 00:06:19;;;;;;;19.37;16.37;;;;;;;-2.98;84.55;93682.00;5087125;28;20292;-70
2022/12/21 00:08:46;;;;;;;16.10;14.73;;;;;;;-2.96;86.26;93681.81;5084486;28;20192;-70
2022/12/21 00:11:13;;;;;;;16.77;15.33;;;;;;;-3.02;85.41;93683.31;5091303;28;20223;-70
2022/12/21 00:13:39;;;;;;;14.47;13.10;;;;;;;-3.20;85.38;93666.66;5088871;28;20224;-70
2022/12/21 00:16:11;;;;;;;15.00;13.77;;;;;;;-2.95;85.76;93685.97;5089465;28;20228;-70
2022/12/21 00:18:38;;;;;;;14.33;12.80;;;;;;;-2.96;84.74;93689.50;5085019;28;20184;-70
2022/12/21 00:21:05;;;;;;;14.50;13.13;;;;;;;-2.92;84.80;93690.72;5090846;28;20230;-70
2022/12/21 00:23:31;;;;;;;14.30;13.13;;;;;;;-2.84;84.65;93686.38;5091867;28;20191;-70
2022/12/21 00:26:00;;;;;;;16.63;14.87;;;;;;;-2.85;84.51;93677.13;5090422;28;20221;-70
2022/12/21 00:28:27;;;;;;;16.73;15.03;;;;;;;-2.82;84.19;93681.88;5086630;28;20181;-69
2022/12/21 00:30:52;;;;;;;19.77;16.33;;;;;;;-2.75;84.01;93680.22;5090786;28;20234;-70
2022/12/21 00:33:18;;;;;;;16.53;14.80;;;;;;;-2.91;84.52;93666.78;5091327;28;20209;-70
2022/12/21 00:35:51;;;;;;;19.27;16.97;;;;;;;-2.79;83.75;93681.53;5091173;28;20221;-70
2022/12/21 00:38:18;;;;;;;16.80;15.20;;;;;;;-2.82;84.13;93681.88;5091387;28;20210;-70
2022/12/21 00:40:43;;;;;;;17.40;15.60;;;;;;;-3.02;84.29;93660.34;5090948;28;20228;-70
2022/12/21 00:43:09;;;;;;;17.93;16.00;;;;;;;-2.91;84.42;93667.56;5087170;28;20185;-70
2022/12/21 00:45:35;;;;;;;18.70;16.70;;;;;;;-2.97;85.12;93667.47;5090848;28;20181;-71
2022/12/21 00:48:00;;;;;;;22.40;16.70;;;;;;;-3.07;86.44;93672.81;5090878;28;20189;-70
2022/12/21 00:50:26;;;;;;;20.60;17.07;;;;;;;-3.20;87.14;93652.16;5078433;28;20197;-70
2022/12/21 00:52:51;;;;;;;18.00;16.17;;;;;;;-2.97;86.79;93662.38;5090939;28;20240;-70
2022/12/21 00:55:17;;;;;;;17.57;15.77;;;;;;;-2.86;86.49;93644.84;5091288;28;20168;-70
2022/12/21 00:57:42;;;;;;;16.37;14.87;;;;;;;-2.69;85.44;93640.41;5085482;28;21019;-70
2022/12/21 01:00:09;;;;;;;18.20;16.27;;;;;;;-2.92;84.99;93625.13;5089862;28;20189;-70
2022/12/21 01:02:35;;;;;;;15.50;13.97;;;;;;;-2.85;85.01;93631.13;5091053;28;20224;-70
2022/12/21 01:05:01;;;;;;;14.43;12.97;;;;;;;-2.89;84.49;93616.31;5090484;28;20177;-71
2022/12/21 01:07:27;;;;;;;13.17;12.27;;;;;;;-2.93;84.10;93623.53;5090400;28;20324;-70
2022/12/21 01:09:53;;;;;;;14.13;12.83;;;;;;;-3.15;84.16;93614.13;5084154;28;20177;-70
2022/12/21 01:12:18;;;;;;;14.70;12.90;;;;;;;-3.03;84.32;93640.84;5080012;28;20220;-70
2022/12/21 01:14:43;;;;;;;13.53;12.63;;;;;;;-3.03;83.87;93627.28;5090707;28;20189;-71
2022/12/21 01:17:09;;;;;;;13.20;11.87;;;;;;;-3.20;83.92;93625.81;5076695;28;20212;-71
2022/12/21 01:19:34;;;;;;;16.03;13.83;;;;;;;-3.19;84.82;93633.31;5090573;28;20248;-71
2022/12/21 01:22:00;;;;;;;14.07;12.87;;;;;;;-3.09;85.59;93633.88;5089071;28;20232;-70
2022/12/21 01:24:25;;;;;;;13.93;12.77;;;;;;;-3.25;84.94;93623.78;5071242;28;20206;-71
2022/12/21 01:26:50;;;;;;;13.50;12.40;;;;;;;-3.16;85.56;93639.84;5079660;28;20220;-71
2022/12/21 01:29:16;;;;;;;12.37;11.47;;;;;;;-3.03;83.74;93640.84;5103158;28;20215;-71
2022/12/21 01:31:41;;;;;;;12.87;11.90;;;;;;;-3.12;83.81;93629.13;5089804;28;20225;-71
2022/12/21 01:34:07;;;;;;;12.47;11.47;;;;;;;-3.06;83.53;93633.53;5090540;28;20189;-71
2022/12/21 01:36:32;;;;;;;13.47;12.57;;;;;;;-3.24;83.40;93610.06;5089979;28;20221;-70
2022/12/21 01:38:58;;;;;;;13.00;11.80;;;;;;;-3.19;84.33;93632.53;5090316;28;20189;-71
2022/12/21 01:41:26;;;;;;;15.47;14.03;;;;;;;-3.15;84.15;93632.00;5089565;28;20244;-70
2022/12/21 01:43:58;;;;;;;14.63;13.23;;;;;;;-3.06;84.33;93628.44;5090277;28;20176;-71
2022/12/21 01:46:44;;;;;;;14.40;13.20;;;;;;;-3.07;84.97;93621.75;5089230;28;20220;-71
2022/12/21 01:49:16;;;;;;;16.57;14.90;;;;;;;-3.49;85.57;93565.28;5090098;28;20192;-71
2022/12/21 01:51:44;;;;;;;19.00;17.03;;;;;;;-3.11;85.85;93623.03;5089423;28;20208;-71
2022/12/21 01:54:25;;;;;;;25.43;15.83;;;;;;;-3.11;86.04;93596.72;5079892;28;20198;-71
2022/12/21 01:56:56;;;;;;;18.57;14.83;;;;;;;-3.12;86.91;93601.03;5088382;28;20281;-71
2022/12/21 01:59:39;;;;;;;18.40;15.97;;;;;;;-3.33;88.83;93590.66;5089721;28;20201;-70
2022/12/21 02:02:11;;;;;;;22.03;15.73;;;;;;;-3.13;87.19;93589.25;5089439;28;20291;-71
2022/12/21 02:04:37;;;;;;;16.83;15.10;;;;;;;-3.12;86.52;93593.38;5089777;28;20177;-71
2022/12/21 02:07:03;;;;;;;17.37;15.47;;;;;;;-3.61;87.97;93541.13;5078531;28;20240;-71
2022/12/21 02:09:31;;;;;;;16.03;14.37;;;;;;;-3.39;88.88;93592.13;5081966;28;20252;-71
2022/12/21 02:12:02;;;;;;;19.90;16.13;;;;;;;-3.21;88.07;93591.03;5085270;28;20233;-70
2022/12/21 02:14:29;;;;;;;16.17;14.50;;;;;;;-3.11;86.62;93596.72;5089682;28;20200;-71
2022/12/21 02:17:00;;;;;;;17.13;15.37;;;;;;;-3.14;86.62;93590.19;5089343;28;20236;-71
2022/12/21 02:20:03;;;;;;;19.13;15.87;;;;;;;-3.13;86.19;93591.78;5089265;28;20185;-72
2022/12/21 02:22:41;;;;;;;20.90;17.10;;;;;;;-3.14;86.94;93595.28;5084486;28;20236;-71
2022/12/21 02:25:18;;;;;;;17.67;15.97;;;;;;;-3.20;87.01;93588.31;5079127;28;20211;-71
2022/12/21 02:27:53;;;;;;;18.13;15.77;;;;;;;-3.30;87.84;93596.22;5076326;28;20224;-71
2022/12/21 02:30:20;;;;;;;19.47;14.67;;;;;;;-3.49;88.24;93555.84;5089166;28;20183;-71
2022/12/21 02:33:18;;;;;;;14.27;12.60;;;;;;;-3.32;87.64;93574.38;5089078;28;20216;-71
2022/12/21 02:36:21;;;;;;;15.23;13.87;;;;;;;-3.23;87.55;93575.09;5088629;28;20235;-70
2022/12/21 02:39:23;;;;;;;16.63;15.07;;;;;;;-3.28;87.68;93567.97;5084637;28;20181;-71
2022/12/21 02:42:02;;;;;;;13.40;12.47;;;;;;;-3.31;87.09;93571.66;5085522;28;20315;-71
2022/12/21 02:44:41;;;;;;;14.50;12.97;;;;;;;-3.33;87.06;93583.78;5089389;28;20197;-71
2022/12/21 02:47:18;;;;;;;13.67;12.37;;;;;;;-3.31;87.14;93584.44;5087480;28;20208;-70
2022/12/21 02:50:05;;;;;;;13.57;12.57;;;;;;;-3.31;86.09;93574.22;5099917;28;20179;-70
2022/12/21 02:52:42;;;;;;;13.53;12.53;;;;;;;-3.31;85.55;93586.19;5088589;28;20219;-71
2022/12/21 02:55:13;;;;;;;13.50;12.30;;;;;;;-3.38;85.77;93582.72;5069766;28;20197;-72
2022/12/21 02:57:43;;;;;;;17.57;13.97;;;;;;;-3.29;85.97;93581.69;5080899;28;20229;-71
2022/12/21 03:00:15;;;;;;;17.03;15.43;;;;;;;-3.42;86.47;93572.06;5072076;28;20196;-71
2022/12/21 03:06:09;;;;;;;15.80;14.17;;;;;;;-3.42;87.71;93573.81;5074294;28;20254;-71
2022/12/21 03:08:46;;;;;;;18.17;15.17;;;;;;;-3.34;87.71;93576.31;5076869;28;20192;-71
2022/12/21 03:11:12;;;;;;;15.53;13.80;;;;;;;-3.36;89.40;93573.94;5074373;28;20231;-71
2022/12/21 03:13:43;;;;;;;18.00;16.17;;;;;;;-3.47;89.26;93569.22;5084944;28;20877;-71
2022/12/21 03:16:27;;;;;;;18.43;16.60;;;;;;;-3.52;90.11;93540.09;5065696;28;20258;-72
2022/12/21 03:19:11;;;;;;;15.90;14.40;;;;;;;-3.20;87.87;93559.44;5089824;28;20185;-71
2022/12/21 03:21:46;;;;;;;16.30;14.53;;;;;;;-3.12;87.46;93562.72;5088969;28;20235;-71
2022/12/21 03:24:30;;;;;;;13.97;12.57;;;;;;;-3.32;87.20;93546.31;5091196;28;21008;-69
2022/12/21 03:27:01;;;;;;;13.83;12.47;;;;;;;-3.27;87.42;93549.91;5093291;28;20252;-70
2022/12/21 03:29:33;;;;;;;13.47;12.63;;;;;;;-3.24;86.20;93525.81;5093408;28;20202;-70
2022/12/21 03:32:06;;;;;;;12.17;11.03;;;;;;;-3.14;84.93;93534.00;5080757;28;20242;-70
2022/12/21 03:34:42;;;;;;;11.60;10.87;;;;;;;-3.31;85.99;93537.69;5092616;28;20189;-70
2022/12/21 03:37:14;;;;;;;12.37;11.43;;;;;;;-3.54;86.51;93511.41;5092752;28;20216;-70
2022/12/21 03:39:46;;;;;;;12.13;11.00;;;;;;;-3.28;86.43;93522.81;5082209;28;20189;-70
2022/12/21 03:42:18;;;;;;;14.00;12.90;;;;;;;-3.36;85.56;93494.00;5093243;28;20271;-70
2022/12/21 03:45:09;;;;;;;11.40;10.67;;;;;;;-3.09;85.04;93515.63;5093174;28;20192;-70
2022/12/21 03:47:48;;;;;;;13.50;12.23;;;;;;;-3.09;84.38;93521.53;5083264;28;20304;-70
2022/12/21 03:50:22;;;;;;;12.63;11.63;;;;;;;-3.22;85.15;93511.09;5092715;28;20826;-70
2022/12/21 03:52:54;;;;;;;10.70;10.00;;;;;;;-3.28;85.72;93500.81;5081572;28;20229;-70
2022/12/21 03:55:30;;;;;;;14.40;13.20;;;;;;;-3.21;85.44;93515.25;5088419;28;20185;-70
2022/12/21 03:57:57;;;;;;;13.07;11.97;;;;;;;-3.17;84.68;93513.94;5094549;28;20184;-70
2022/12/21 04:00:24;;;;;;;13.47;12.30;;;;;;;-3.32;85.20;93505.47;5100861;28;20188;-70
2022/12/21 04:03:08;;;;;;;13.83;12.73;;;;;;;-3.38;86.48;93501.06;5092602;28;20181;-70
2022/12/21 04:05:41;;;;;;;13.93;12.50;;;;;;;-3.32;85.96;93497.81;5092656;28;20192;-70
2022/12/21 04:08:07;;;;;;;15.20;13.77;;;;;;;-3.46;85.59;93484.06;5091648;28;20175;-70
2022/12/21 04:10:33;;;;;;;14.00;12.70;;;;;;;-3.36;86.06;93504.22;5086923;28;20211;-70
2022/12/21 04:12:58;;;;;;;15.17;13.90;;;;;;;-3.26;85.70;93509.88;5091741;28;20200;-70
2022/12/21 04:16:03;;;;;;;14.17;12.83;;;;;;;-3.21;84.38;93501.69;5092328;28;20198;-70
2022/12/21 04:18:12;;;;;;;20.87;15.13;;;;;;;-3.21;84.71;93507.59;5082568;28;20185;-70
2022/12/21 04:20:38;;;;;;;18.23;14.50;;;;;;;-3.25;85.24;93503.78;5091977;28;20273;-70
2022/12/21 04:28:32;;;;;;;15.73;13.93;;;;;;;-3.46;86.53;93462.84;5092567;28;20225;-70
2022/12/21 04:31:00;;;;;;;17.47;15.37;;;;;;;-3.43;87.65;93485.47;5091880;28;20240;-70
2022/12/21 04:33:27;;;;;;;19.23;15.73;;;;;;;-3.41;88.01;93481.00;5092462;28;20261;-70
2022/12/21 04:38:40;;;;;;;14.97;13.60;;;;;;;-3.13;85.17;93491.41;5087711;28;20195;-71
2022/12/21 04:41:06;;;;;;;14.30;12.87;;;;;;;-3.16;85.00;93479.78;5091694;28;20220;-70
2022/12/21 04:43:38;;;;;;;13.67;12.53;;;;;;;-3.25;84.60;93483.38;5093531;28;20201;-70
2022/12/21 04:46:13;;;;;;;15.03;13.67;;;;;;;-3.40;86.33;93488.47;5091535;28;20263;-70
2022/12/21 04:48:38;;;;;;;14.93;13.73;;;;;;;-3.32;86.61;93487.59;5092416;28;20180;-70
2022/12/21 04:51:09;;;;;;;14.07;12.93;;;;;;;-3.34;86.55;93485.22;5096382;28;20234;-68
2022/12/21 04:53:35;;;;;;;15.23;13.90;;;;;;;-3.39;87.12;93479.84;5096378;28;20228;-67
2022/12/21 04:56:01;;;;;;;15.57;14.17;;;;;;;-3.19;85.88;93472.47;5096992;28;20239;-67
2022/12/21 04:58:26;;;;;;;15.43;13.93;;;;;;;-3.27;85.84;93477.66;5100273;28;20196;-68
2022/12/21 05:00:52;;;;;;;16.37;14.53;;;;;;;-3.35;85.82;93475.97;5097951;28;20231;-69
2022/12/21 05:03:19;;;;;;;15.90;14.33;;;;;;;-3.28;85.32;93471.75;5083231;28;20196;-68
2022/12/21 05:05:45;;;;;;;18.03;16.23;;;;;;;-3.31;85.23;93472.13;5078895;28;20225;-68
2022/12/21 05:08:10;;;;;;;18.90;17.00;;;;;;;-3.25;84.88;93465.50;5083275;28;20189;-70
2022/12/21 05:10:35;;;;;;;16.83;15.10;;;;;;;-3.04;84.41;93483.50;5091135;28;20248;-71
2022/12/21 05:13:01;;;;;;;17.20;15.43;;;;;;;-3.25;84.63;93480.81;5092217;28;20193;-69
2022/12/21 05:15:27;;;;;;;17.60;15.70;;;;;;;-3.33;85.21;93483.44;5092585;28;20238;-69
2022/12/21 05:17:52;;;;;;;18.80;15.57;;;;;;;-3.42;85.99;93484.50;5091729;28;20165;-67
2022/12/21 05:20:18;;;;;;;18.43;16.43;;;;;;;-3.24;86.27;93484.19;5090168;28;20236;-71
2022/12/21 05:22:46;;;;;;;21.40;15.83;;;;;;;-3.38;86.69;93485.75;5088767;28;20301;-69
2022/12/21 05:25:12;;;;;;;21.03;16.53;;;;;;;-3.42;86.20;93481.94;5091423;28;20179;-70
2022/12/21 05:27:37;;;;;;;21.17;18.03;;;;;;;-3.53;87.16;93467.03;5091005;28;20233;-68
2022/12/21 05:30:03;;;;;;;19.07;17.03;;;;;;;-3.21;93.16;93465.94;5091137;28;20189;-71
2022/12/21 05:32:28;;;;;;;21.77;17.00;;;;;;;-3.27;90.58;93473.34;5090603;28;20221;-70
2022/12/21 05:34:54;;;;;;;18.20;16.27;;;;;;;-3.37;89.10;93482.22;5091088;28;20201;-70
2022/12/21 05:37:19;;;;;;;16.13;14.50;;;;;;;-3.35;87.61;93475.19;5090870;28;20234;-69
2022/12/21 05:39:45;;;;;;;23.30;18.73;;;;;;;-3.25;86.66;93485.94;5091309;28;20192;-70
2022/12/21 05:42:10;;;;;;;24.63;18.53;;;;;;;-3.28;86.38;93490.59;5090733;28;20232;-70
2022/12/21 05:44:35;;;;;;;35.83;20.03;;;;;;;-3.31;86.99;93473.88;5073793;28;20181;-69
2022/12/21 05:47:01;;;;;;;32.40;21.80;;;;;;;-4.32;87.50;93321.44;5090002;28;20216;-70
2022/12/21 05:49:26;;;;;;;29.00;20.27;;;;;;;-3.45;88.61;93479.75;5090711;28;20313;-70
2022/12/21 05:51:51;;;;;;;28.70;20.53;;;;;;;-3.48;90.13;93480.88;5083702;28;20238;-70
2022/12/21 05:54:17;;;;;;;31.97;22.80;;;;;;;-3.36;89.91;93478.69;5084343;28;20200;-70
2022/12/21 05:56:42;;;;;;;30.57;23.40;;;;;;;-3.37;89.55;93487.31;5089547;28;20216;-70
2022/12/21 05:59:08;;;;;;;36.03;26.00;;;;;;;-3.23;88.25;93468.69;5101401;28;20271;-70
2022/12/21 06:01:33;;;;;;;40.23;27.23;;;;;;;-3.22;88.00;93467.72;5076839;28;20262;-70
2022/12/21 06:03:59;;;;;;;35.77;24.73;;;;;;;-3.36;88.56;93458.28;5084065;28;20199;-72
2022/12/21 06:06:24;;;;;;;27.30;22.23;;;;;;;-3.46;87.68;93427.94;5085978;28;20225;-69
2022/12/21 06:08:50;;;;;;;37.33;23.97;;;;;;;-3.20;87.60;93468.34;5089273;28;20187;-68
2022/12/21 06:11:23;;;;;;;30.50;22.40;;;;;;;-3.22;87.61;93466.94;5086488;28;20243;-68
2022/12/21 06:13:49;;;;;;;24.33;20.00;;;;;;;-3.08;87.28;93474.59;5089229;28;20267;-69
2022/12/21 06:16:19;;;;;;;27.13;20.37;;;;;;;-3.12;86.81;93478.47;5088160;28;20799;-69
2022/12/21 06:18:45;;;;;;;28.20;21.90;;;;;;;-2.94;85.91;93473.78;5085983;28;20275;-70
2022/12/21 06:21:12;;;;;;;22.67;20.40;;;;;;;-3.04;85.91;93467.38;5085834;28;20252;-69
2022/12/21 06:23:38;;;;;;;24.67;18.10;;;;;;;-2.91;85.33;93472.66;5085514;28;20200;-68
2022/12/21 06:26:07;;;;;;;26.63;19.33;;;;;;;-2.97;87.08;93463.16;5087221;28;20379;-67
2022/12/21 06:28:33;;;;;;;24.50;18.83;;;;;;;-3.01;87.05;93456.81;5087975;28;20214;-69
2022/12/21 06:31:07;;;;;;;26.53;18.53;;;;;;;-2.77;85.93;93464.97;5085000;28;20374;-68
2022/12/21 06:33:33;;;;;;;22.83;19.03;;;;;;;-2.68;85.62;93453.72;5088200;28;20220;-69
2022/12/21 06:35:58;;;;;;;20.17;16.87;;;;;;;-2.61;84.93;93458.88;5087638;28;20216;-68
2022/12/21 06:38:24;;;;;;;20.67;17.13;;;;;;;-2.78;85.71;93448.06;5088014;28;20181;-68
2022/12/21 06:41:01;;;;;;;19.77;17.50;;;;;;;-2.45;84.98;93461.25;5084996;28;20258;-67
2022/12/21 06:43:30;;;;;;;22.27;16.93;;;;;;;-2.36;84.89;93462.72;5086354;28;20185;-67
2022/12/21 06:46:01;;;;;;;20.20;17.67;;;;;;;-2.38;84.29;93470.56;5087876;28;20229;-68
2022/12/21 06:48:27;;;;;;;19.47;16.47;;;;;;;-2.45;85.38;93459.50;5077382;28;20185;-68
2022/12/21 06:50:55;;;;;;;21.47;18.17;;;;;;;-2.23;84.43;93468.78;5079475;28;20263;-68
2022/12/21 06:53:23;;;;;;;20.00;15.87;;;;;;;-2.18;83.98;93463.13;5089772;28;20230;-68
2022/12/21 06:55:48;;;;;;;21.90;18.13;;;;;;;-2.12;84.50;93452.16;5088085;28;20232;-69
2022/12/21 06:58:14;;;;;;;19.43;17.43;;;;;;;-1.76;86.25;93471.59;5071890;28;20217;-71
2022/12/21 07:00:40;;;;;;;23.67;18.03;;;;;;;-1.58;82.03;93476.28;5083206;28;20243;-71
2022/12/21 07:03:05;;;;;;;25.30;19.57;;;;;;;-1.54;81.68;93474.91;5088427;28;20199;-71
2022/12/21 07:05:30;;;;;;;26.03;18.70;;;;;;;-1.65;83.12;93473.66;5082440;28;20185;-71
2022/12/21 07:07:56;;;;;;;26.87;20.13;;;;;;;-1.56;83.42;93473.53;5059571;28;20240;-71
2022/12/21 07:10:21;;;;;;;30.47;19.17;;;;;;;-1.51;83.01;93481.47;5089240;28;21298;-71
2022/12/21 07:12:46;;;;;;;22.90;19.07;;;;;;;-1.40;82.21;93486.09;5089526;28;20204;-70
2022/12/21 07:15:12;;;;;;;24.83;18.27;;;;;;;-1.30;81.66;93491.66;5071116;28;20192;-72
2022/12/21 07:17:37;;;;;;;20.53;18.40;;;;;;;-1.22;81.75;93496.66;5088116;28;20288;-71
2022/12/21 07:20:04;;;;;;;34.13;20.00;;;;;;;-1.32;80.89;93498.75;5088560;28;20224;-71
2022/12/21 07:22:29;;;;;;;28.43;19.93;;;;;;;-1.35;79.83;93502.47;5087923;28;20232;-71
2022/12/21 07:24:54;;;;;;;22.83;19.97;;;;;;;-1.36;80.50;93498.31;5088618;28;20208;-71
2022/12/21 07:27:20;;;;;;;23.13;18.63;;;;;;;-1.33;81.58;93492.03;5087747;28;20221;-71
2022/12/21 07:29:45;;;;;;;24.40;17.27;;;;;;;-1.01;80.59;93497.38;5088824;28;20314;-70
2022/12/21 07:32:11;;;;;;;24.37;19.40;;;;;;;-1.14;80.26;93501.63;5070058;28;20239;-71
2022/12/21 07:34:36;;;;;;;24.27;20.27;;;;;;;-1.12;80.92;93492.00;5084538;28;20216;-71
2022/12/21 07:37:01;;;;;;;27.37;21.07;;;;;;;-0.93;79.88;93499.81;5088706;28;20243;-71
2022/12/21 07:39:27;;;;;;;27.47;20.23;;;;;;;-0.96;80.64;93478.88;5089725;28;20185;-71
2022/12/21 07:41:52;;;;;;;27.93;19.57;;;;;;;-0.86;80.22;93480.16;5088776;28;20212;-71
2022/12/21 07:44:18;;;;;;;24.07;19.50;;;;;;;-0.98;79.56;93445.00;5090007;28;20203;-71
2022/12/21 07:46:44;;;;;;;23.27;20.30;;;;;;;-0.85;79.15;93474.03;5087886;28;20247;-71
2022/12/21 07:49:09;;;;;;;28.10;21.20;;;;;;;-0.97;79.11;93456.81;5085492;28;20181;-71
2022/12/21 07:51:34;;;;;;;32.40;20.40;;;;;;;-0.84;79.04;93469.72;5076140;28;20224;-71
2022/12/21 07:54:00;;;;;;;30.50;22.27;;;;;;;-0.74;78.87;93477.84;5089295;28;20217;-71
2022/12/21 07:56:25;;;;;;;29.00;21.80;;;;;;;-0.75;79.77;93469.38;5075407;28;20233;-71
2022/12/21 07:58:50;;;;;;;35.27;24.27;;;;;;;-0.67;79.00;93473.56;5080546;28;20223;-71
2022/12/21 08:01:19;;;;;;;27.00;21.90;;;;;;;-0.54;79.07;93482.09;5087131;28;20220;-71
2022/12/21 08:03:45;;;;;;;33.23;23.90;;;;;;;-0.59;79.80;93475.97;5084869;28;20183;-72
2022/12/21 08:06:11;;;;;;;36.37;23.50;;;;;;;-0.61;81.20;93478.69;5088874;28;20245;-71
2022/12/21 08:08:37;;;;;;;33.30;23.97;;;;;;;-0.45;81.37;93472.47;5089441;28;20196;-71
2022/12/21 08:11:03;;;;;;;41.43;27.17;;;;;;;-0.33;81.57;93476.06;5091431;28;20220;-71
2022/12/21 08:13:29;;;;;;;33.83;24.93;;;;;;;-0.34;81.99;93474.47;5093269;28;20279;-71
2022/12/21 08:16:02;;;;;;;39.77;24.63;;;;;;;-0.02;80.50;93481.50;5074168;28;20228;-72
2022/12/21 08:18:28;;;;;;;39.07;23.50;;;;;;;0.08;79.87;93474.22;5092724;28;20202;-71
2022/12/21 08:20:55;;;;;;;34.70;23.13;;;;;;;0.26;79.87;93471.09;5091981;28;20235;-71
2022/12/21 08:23:20;;;;;;;33.67;23.80;;;;;;;0.27;79.85;93476.03;5092729;28;20207;-71
2022/12/21 08:25:46;;;;;;;32.43;22.53;;;;;;;0.43;78.45;93470.53;5092066;28;20221;-70
2022/12/21 08:28:12;;;;;;;31.80;24.80;;;;;;;0.18;79.21;93448.97;5092536;28;20223;-70
2022/12/21 08:30:38;;;;;;;33.80;23.80;;;;;;;0.34;78.88;93452.94;5086690;28;20185;-70
2022/12/21 08:33:04;;;;;;;38.17;24.60;;;;;;;0.40;78.79;93460.66;5084491;28;20303;-70
2022/12/21 08:35:30;;;;;;;36.73;24.00;;;;;;;0.43;78.70;93451.75;5092045;28;20203;-70
2022/12/21 08:37:55;;;;;;;37.00;23.67;;;;;;;0.47;78.46;93446.03;5092542;28;20181;-70
2022/12/21 08:40:21;;;;;;;34.73;23.70;;;;;;;0.45;78.14;93445.44;5092079;28;20197;-71
2022/12/21 08:42:46;;;;;;;32.37;23.03;;;;;;;0.52;78.89;93451.38;5088285;28;20199;-69
2022/12/21 08:45:12;;;;;;;35.80;24.80;;;;;;;0.69;78.02;93451.75;5091477;28;20180;-71
2022/12/21 08:47:38;;;;;;;31.57;22.80;;;;;;;0.77;76.24;93443.84;5075918;28;20221;-71
2022/12/21 08:50:04;;;;;;;27.87;21.47;;;;;;;0.61;76.58;93418.59;5078155;28;20181;-71
2022/12/21 08:52:30;;;;;;;36.90;23.90;;;;;;;0.60;77.01;93420.34;5091703;28;20224;-71
2022/12/21 08:54:56;;;;;;;32.87;22.57;;;;;;;0.78;76.74;93425.66;5091884;28;20184;-71
2022/12/21 08:57:21;;;;;;;31.10;23.13;;;;;;;0.65;76.75;93419.75;5073987;28;20308;-71
2022/12/21 08:59:47;;;;;;;29.23;22.73;;;;;;;0.75;77.24;93425.25;5078929;28;20207;-71
2022/12/21 09:02:12;;;;;;;30.77;23.00;;;;;;;0.68;76.70;93406.50;5086995;28;20251;-71
2022/12/21 09:04:37;;;;;;;40.93;25.13;;;;;;;0.62;78.03;93426.09;5092553;28;20176;-72
2022/12/21 09:07:03;;;;;;;30.90;23.03;;;;;;;0.52;78.34;93423.13;5091308;28;20221;-71
2022/12/21 09:09:28;;;;;;;34.17;25.00;;;;;;;0.54;78.07;93426.28;5091469;28;20177;-71
2022/12/21 09:11:54;;;;;;;36.53;23.37;;;;;;;0.22;79.43;93409.06;5091334;28;20215;-70
2022/12/21 09:14:20;;;;;;;34.93;24.23;;;;;;;0.60;78.73;93412.66;5087306;28;20272;-71
2022/12/21 09:16:45;;;;;;;40.37;25.17;;;;;;;0.79;78.24;93414.41;5072693;28;20244;-71
2022/12/21 09:19:11;;;;;;;34.70;23.97;;;;;;;0.83;78.08;93405.31;5089641;28;20185;-71
2022/12/21 09:21:36;;;;;;;34.30;25.27;;;;;;;0.94;77.40;93402.13;5090220;28;20228;-71
2022/12/21 09:24:02;;;;;;;37.90;22.70;;;;;;;0.90;78.06;93398.34;5091197;28;20206;-72
2022/12/21 09:26:27;;;;;;;32.77;24.13;;;;;;;1.11;77.39;93393.00;5091324;28;20239;-71
2022/12/21 09:28:54;;;;;;;30.50;22.90;;;;;;;1.33;76.22;93388.38;5091367;28;20173;-71
2022/12/21 09:31:21;;;;;;;33.67;23.13;;;;;;;1.44;75.37;93383.38;5086886;28;20232;-71
2022/12/21 09:33:47;;;;;;;31.20;23.17;;;;;;;1.38;74.93;93371.34;5091048;28;20204;-71
2022/12/21 09:36:13;;;;;;;29.00;24.30;;;;;;;1.20;75.89;93362.69;5090812;28;20277;-71
2022/12/21 09:38:39;;;;;;;31.77;24.33;;;;;;;1.35;75.78;93366.56;5089517;28;20190;-72
2022/12/21 09:41:05;;;;;;;32.30;22.70;;;;;;;1.36;75.58;93370.75;5073174;28;20231;-71
2022/12/21 09:43:56;;;;;;;30.00;22.73;;;;;;;1.24;75.92;93356.16;5091260;28;20175;-72
2022/12/21 09:46:22;;;;;;;34.57;23.03;;;;;;;1.38;75.18;93355.13;5086109;28;20255;-71
2022/12/21 09:48:47;;;;;;;35.17;24.47;;;;;;;1.70;74.77;93353.38;5083943;28;20170;-71
2022/12/21 09:51:19;;;;;;;36.60;23.23;;;;;;;1.57;75.23;93349.84;5074330;28;20234;-71
2022/12/21 09:54:12;;;;;;;30.63;24.17;;;;;;;1.22;76.55;93330.66;5083345;28;20201;-71
2022/12/21 09:56:41;;;;;;;33.53;21.47;;;;;;;1.40;76.28;93348.75;5085631;28;20229;-71
2022/12/21 09:59:13;;;;;;;37.77;22.87;;;;;;;1.57;75.64;93339.56;5078552;28;20174;-71
2022/12/21 10:02:32;;;;;;;24.63;21.40;;;;;;;1.66;75.37;93340.13;5089673;28;20225;-71
2022/12/21 10:05:16;;;;;;;33.03;22.93;;;;;;;2.21;72.51;93343.72;5009074;28;20191;-71
2022/12/21 10:08:15;;;;;;;30.47;21.90;;;;;;;1.74;75.29;93339.88;5080786;28;20231;-71
2022/12/21 10:11:06;;;;;;;30.77;21.43;;;;;;;1.79;73.89;93334.13;5084433;28;20239;-71
2022/12/21 10:13:37;;;;;;;32.10;22.50;;;;;;;1.92;73.74;93326.28;5098185;28;20208;-71
2022/12/21 10:16:22;;;;;;;27.50;20.97;;;;;;;2.10;73.13;93319.41;5085549;28;20225;-71
2022/12/21 10:19:01;;;;;;;26.47;20.73;;;;;;;2.08;72.27;93318.84;5071545;28;20201;-71
2022/12/21 10:21:34;;;;;;;23.77;21.10;;;;;;;1.61;73.98;93268.72;5089960;28;20262;-71
2022/12/21 10:24:03;;;;;;;28.40;21.67;;;;;;;2.06;72.55;93307.19;5090164;28;20240;-71
2022/12/21 10:26:35;;;;;;;30.20;22.00;;;;;;;2.11;72.83;93305.56;5089731;28;20257;-72
2022/12/21 10:29:32;;;;;;;38.80;23.50;;;;;;;2.13;72.30;93295.06;5077769;28;20204;-71
2022/12/21 10:31:59;;;;;;;30.73;22.20;;;;;;;2.13;73.38;93279.59;5047333;28;20237;-72
2022/12/21 10:34:31;;;;;;;36.03;22.70;;;;;;;2.31;72.02;93288.16;5090321;28;20944;-70
2022/12/21 10:37:16;;;;;;;27.20;21.80;;;;;;;2.73;70.43;93284.78;5089655;28;20213;-69
2022/12/21 10:39:42;;;;;;;31.57;20.63;;;;;;;2.58;69.49;93275.81;5090059;28;20211;-71
2022/12/21 10:42:36;;;;;;;28.77;21.40;;;;;;;2.67;68.76;93277.91;5089548;28;20223;-71
2022/12/21 10:45:01;;;;;;;30.80;20.97;;;;;;;2.63;69.10;93288.84;5090450;28;20246;-72
2022/12/21 10:47:27;;;;;;;24.10;20.40;;;;;;;2.95;67.71;93285.13;5089727;28;20228;-72
2022/12/21 10:50:04;;;;;;;28.77;22.03;;;;;;;2.75;68.09;93281.97;5089821;28;20255;-71
2022/12/21 10:52:38;;;;;;;26.50;20.90;;;;;;;2.75;69.25;93280.19;5089542;28;20225;-71
2022/12/21 10:55:06;;;;;;;29.93;21.40;;;;;;;2.59;69.31;93256.75;5089034;28;20185;-72
2022/12/21 10:57:33;;;;;;;29.83;21.47;;;;;;;3.08;66.06;93279.81;5089623;28;20280;-69
2022/12/21 11:00:20;;;;;;;30.70;22.60;;;;;;;3.20;66.84;93276.31;5088979;28;20184;-70
2022/12/21 11:02:47;;;;;;;29.00;21.87;;;;;;;3.01;67.30;93255.88;5089554;28;20320;-69
2022/12/21 11:05:28;;;;;;;30.47;22.37;;;;;;;3.18;65.89;93270.56;5089963;28;20243;-69
2022/12/21 11:08:12;;;;;;;34.50;22.20;;;;;;;3.10;66.09;93250.22;5089459;28;20212;-70
2022/12/21 11:10:47;;;;;;;31.77;22.47;;;;;;;2.97;68.24;93259.91;5089238;28;20234;-69
2022/12/21 11:13:14;;;;;;;29.23;21.80;;;;;;;2.90;68.15;93254.84;5082367;28;20308;-69
2022/12/21 11:16:10;;;;;;;37.07;23.37;;;;;;;3.23;67.00;93254.44;5089315;28;20181;-70
2022/12/21 11:18:43;;;;;;;36.63;23.57;;;;;;;3.36;66.36;93254.28;5089804;28;20252;-69
2022/12/21 11:21:40;;;;;;;28.53;22.37;;;;;;;3.35;65.95;93244.94;5088606;28;20270;-70
2022/12/21 11:24:24;;;;;;;34.87;22.97;;;;;;;3.41;65.66;93241.47;5081704;28;20201;-69
2022/12/21 11:26:52;;;;;;;29.40;21.43;;;;;;;3.26;65.53;93233.34;5085183;28;20272;-70
2022/12/21 11:29:26;;;;;;;30.10;23.50;;;;;;;3.43;65.55;93238.69;5089669;28;20204;-69
2022/12/21 11:31:54;;;;;;;30.40;22.87;;;;;;;3.15;66.95;93221.19;5089048;28;20248;-70
2022/12/21 11:34:32;;;;;;;37.70;23.60;;;;;;;3.10;67.78;93226.22;5089534;28;20242;-71
2022/12/21 11:37:04;;;;;;;29.57;22.73;;;;;;;3.44;66.29;93229.94;5086665;28;21114;-71
2022/12/21 11:39:29;;;;;;;32.67;22.17;;;;;;;3.46;65.51;93226.13;5080087;28;20185;-71
2022/12/21 11:41:55;;;;;;;28.23;22.27;;;;;;;3.57;64.53;93215.03;5076905;28;20220;-70
2022/12/21 11:44:33;;;;;;;23.47;20.10;;;;;;;3.55;65.47;93226.63;5091004;28;20192;-70